createdAt,value
2022-12-12T00:02:06.701Z,81.29
2022-12-12T00:04:33.290Z,81.57
2022-12-12T00:06:59.951Z,81.26
2022-12-12T00:09:26.609Z,81.32
2022-12-12T00:11:53.214Z,81.27
2022-12-12T00:14:19.968Z,81.11
2022-12-12T00:16:46.622Z,81.24
2022-12-12T00:19:13.314Z,81.24
2022-12-12T00:21:40.075Z,81.18
2022-12-12T00:24:07.216Z,80.97
2022-12-12T00:26:34.914Z,81.47
2022-12-12T00:29:03.931Z,81.24
2022-12-12T00:31:33.442Z,81.19
2022-12-12T00:34:02.928Z,81.12
2022-12-12T00:36:31.069Z,81.19
2022-12-12T00:38:58.986Z,81.26
2022-12-12T00:41:25.995Z,81.29
2022-12-12T00:43:52.896Z,80.98
2022-12-12T00:46:22.446Z,81.05
2022-12-12T00:48:49.411Z,81.27
2022-12-12T00:51:21.730Z,81.26
2022-12-12T00:53:48.944Z,81.66
2022-12-12T00:56:17.474Z,81.35
2022-12-12T00:58:44.328Z,81.66
2022-12-12T01:01:14.243Z,81.28
2022-12-12T01:03:42.219Z,81.11
2022-12-12T01:06:09.654Z,80.73
2022-12-12T01:08:37.282Z,81.15
2022-12-12T01:11:04.349Z,81.45
2022-12-12T01:13:31.053Z,80.95
2022-12-12T01:15:58.081Z,81.59
2022-12-12T01:18:25.591Z,81.49
2022-12-12T01:20:53.070Z,81.20
2022-12-12T01:23:19.718Z,81.54
2022-12-12T01:25:46.406Z,81.20
2022-12-12T01:28:13.145Z,81.00
2022-12-12T01:30:39.946Z,81.04
2022-12-12T01:33:06.649Z,81.60
2022-12-12T01:35:34.122Z,80.99
2022-12-12T01:38:00.758Z,81.24
2022-12-12T01:40:30.018Z,81.35
2022-12-12T01:42:56.955Z,81.09
2022-12-12T01:45:57.431Z,81.13
2022-12-12T01:48:53.418Z,81.58
2022-12-12T01:51:23.564Z,81.06
2022-12-12T01:53:54.430Z,81.08
2022-12-12T01:56:21.700Z,81.33
2022-12-12T01:58:51.394Z,81.20
2022-12-12T02:01:19.267Z,81.11
2022-12-12T02:03:48.527Z,81.07
2022-12-12T02:06:19.942Z,81.05
2022-12-12T02:08:47.798Z,81.07
2022-12-12T02:11:14.439Z,81.06
2022-12-12T02:13:41.522Z,81.19
2022-12-12T02:16:31.407Z,81.26
2022-12-12T02:19:22.672Z,81.10
2022-12-12T02:22:03.287Z,81.13
2022-12-12T02:24:48.826Z,80.95
2022-12-12T02:27:27.396Z,81.52
2022-12-12T02:30:06.547Z,81.18
2022-12-12T02:32:36.138Z,81.20
2022-12-12T02:35:19.061Z,81.36
2022-12-12T02:37:52.918Z,81.01
2022-12-12T02:40:36.889Z,80.85
2022-12-12T02:43:06.429Z,81.27
2022-12-12T02:45:54.494Z,81.39
2022-12-12T02:48:32.208Z,80.90
2022-12-12T02:51:02.323Z,81.08
2022-12-12T02:53:28.966Z,80.91
2022-12-12T02:56:06.924Z,81.05
2022-12-12T02:58:36.216Z,80.96
2022-12-12T03:01:26.535Z,81.23
2022-12-12T03:04:24.102Z,80.93
2022-12-12T03:07:21.550Z,80.31
2022-12-12T03:10:09.686Z,80.64
2022-12-12T03:12:49.108Z,80.93
2022-12-12T03:15:26.254Z,80.97
2022-12-12T03:18:16.663Z,80.73
2022-12-12T03:20:53.756Z,81.18
2022-12-12T03:23:28.538Z,80.92
2022-12-12T03:26:26.902Z,80.97
2022-12-12T03:29:05.776Z,81.02
2022-12-12T03:31:37.573Z,80.74
2022-12-12T03:34:27.946Z,80.84
2022-12-12T03:37:01.262Z,80.90
2022-12-12T03:39:35.489Z,80.77
2022-12-12T03:42:15.647Z,80.84
2022-12-12T03:44:51.391Z,80.95
2022-12-12T03:47:23.550Z,80.68
2022-12-12T03:49:52.487Z,81.05
2022-12-12T03:52:38.768Z,80.77
2022-12-12T03:55:31.898Z,81.13
2022-12-12T03:58:05.416Z,81.02
2022-12-12T04:00:38.409Z,81.16
2022-12-12T04:03:32.958Z,80.28
2022-12-12T04:06:37.690Z,81.03
2022-12-12T04:09:33.027Z,80.71
2022-12-12T04:12:35.356Z,80.96
2022-12-12T04:15:20.090Z,81.05
2022-12-12T04:18:22.345Z,80.76
2022-12-12T04:21:07.300Z,80.65
2022-12-12T04:23:57.020Z,80.98
2022-12-12T04:26:40.676Z,80.96
2022-12-12T04:29:17.393Z,80.81
2022-12-12T04:31:57.797Z,80.91
2022-12-12T04:34:50.274Z,80.89
2022-12-12T04:37:24.593Z,80.75
2022-12-12T04:39:56.721Z,80.75
2022-12-12T04:42:28.752Z,80.79
2022-12-12T04:45:03.470Z,80.76
2022-12-12T04:47:32.333Z,80.60
2022-12-12T04:50:03.371Z,80.66
2022-12-12T04:52:32.989Z,81.06
2022-12-12T04:55:21.137Z,80.76
2022-12-12T04:57:51.107Z,81.07
2022-12-12T05:00:18.307Z,80.86
2022-12-12T05:03:02.245Z,80.83
2022-12-12T05:05:37.134Z,80.75
2022-12-12T05:08:23.030Z,80.84
2022-12-12T05:10:56.139Z,80.88
2022-12-12T05:13:29.291Z,80.89
2022-12-12T05:15:58.145Z,80.85
2022-12-12T05:18:24.746Z,80.91
2022-12-12T05:20:51.858Z,80.99
2022-12-12T05:23:18.791Z,81.18
2022-12-12T05:25:45.475Z,81.04
2022-12-12T05:28:12.187Z,81.16
2022-12-12T05:30:38.843Z,81.07
2022-12-12T05:33:05.564Z,80.81
2022-12-12T05:35:33.959Z,80.88
2022-12-12T05:38:02.067Z,81.00
2022-12-12T05:40:28.741Z,80.80
2022-12-12T05:42:55.418Z,81.19
2022-12-12T05:45:22.159Z,80.71
2022-12-12T05:47:48.878Z,81.05
2022-12-12T05:50:15.538Z,81.31
2022-12-12T05:52:42.186Z,81.09
2022-12-12T05:55:09.017Z,81.13
2022-12-12T05:57:35.841Z,80.78
2022-12-12T06:00:02.730Z,80.76
2022-12-12T06:02:29.385Z,81.00
2022-12-12T06:04:56.023Z,80.76
2022-12-12T06:07:22.669Z,81.12
2022-12-12T06:09:49.277Z,81.08
2022-12-12T06:12:15.916Z,81.08
2022-12-12T06:14:42.574Z,81.27
2022-12-12T06:17:09.245Z,80.77
2022-12-12T06:19:35.920Z,81.26
2022-12-12T06:22:02.526Z,81.29
2022-12-12T06:24:29.197Z,81.01
2022-12-12T06:26:56.033Z,81.07
2022-12-12T06:29:22.717Z,80.78
2022-12-12T06:31:49.363Z,81.07
2022-12-12T06:34:16.068Z,81.14
2022-12-12T06:36:43.117Z,81.14
2022-12-12T06:39:10.183Z,80.91
2022-12-12T06:41:37.182Z,81.28
2022-12-12T06:44:04.439Z,80.74
2022-12-12T06:46:31.311Z,81.11
2022-12-12T06:48:58.659Z,80.71
2022-12-12T06:51:29.083Z,81.23
2022-12-12T06:53:56.661Z,81.24
2022-12-12T06:56:25.411Z,80.66
2022-12-12T06:58:53.179Z,81.38
2022-12-12T07:01:21.768Z,80.88
2022-12-12T07:03:49.747Z,81.01
2022-12-12T07:06:17.861Z,80.61
2022-12-12T07:08:44.745Z,80.81
2022-12-12T07:11:17.016Z,81.15
2022-12-12T07:13:43.824Z,81.08
2022-12-12T07:16:11.520Z,81.09
2022-12-12T07:18:38.618Z,81.38
2022-12-12T07:21:11.135Z,80.80
2022-12-12T07:23:38.282Z,81.34
2022-12-12T07:26:12.501Z,81.22
2022-12-12T07:28:39.182Z,81.57
2022-12-12T07:31:11.066Z,81.42
2022-12-12T07:33:43.628Z,81.61
2022-12-12T07:36:15.549Z,81.15
2022-12-12T07:38:42.696Z,80.99
2022-12-12T07:41:15.174Z,81.49
2022-12-12T07:43:44.898Z,81.04
2022-12-12T07:46:16.156Z,81.04
2022-12-12T07:48:43.206Z,81.15
2022-12-12T07:51:10.054Z,81.56
2022-12-12T07:53:36.868Z,80.92
2022-12-12T07:56:07.839Z,81.01
2022-12-12T07:58:35.619Z,81.09
2022-12-12T08:01:14.178Z,80.89
2022-12-12T08:03:42.260Z,80.97
2022-12-12T08:06:08.974Z,80.58
2022-12-12T08:08:35.705Z,80.81
2022-12-12T08:11:10.424Z,80.62
2022-12-12T08:13:39.288Z,80.82
2022-12-12T08:16:08.262Z,81.06
2022-12-12T08:18:35.085Z,80.71
2022-12-12T08:21:01.857Z,81.31
2022-12-12T08:23:28.558Z,81.16
2022-12-12T08:25:55.192Z,80.73
2022-12-12T08:28:21.807Z,81.65
2022-12-12T08:30:50.210Z,81.18
2022-12-12T08:33:17.043Z,81.12
2022-12-12T08:35:43.647Z,81.00
2022-12-12T08:38:10.235Z,80.83
2022-12-12T08:40:36.838Z,81.21
2022-12-12T08:43:03.465Z,81.17
2022-12-12T08:45:30.081Z,80.83
2022-12-12T08:47:56.700Z,81.27
2022-12-12T08:50:23.325Z,81.18
2022-12-12T08:52:49.942Z,81.37
2022-12-12T08:55:16.643Z,81.40
2022-12-12T08:57:43.599Z,80.86
2022-12-12T09:00:10.948Z,81.07
2022-12-12T09:02:37.740Z,80.75
2022-12-12T09:05:04.902Z,80.76
2022-12-12T09:07:31.542Z,81.17
2022-12-12T09:09:58.192Z,81.47
2022-12-12T09:12:24.885Z,80.96
2022-12-12T09:14:51.534Z,81.48
2022-12-12T09:17:18.130Z,81.20
2022-12-12T09:19:45.823Z,80.71
2022-12-12T09:22:12.726Z,80.63
2022-12-12T09:24:39.477Z,80.89
2022-12-12T09:27:06.102Z,81.21
2022-12-12T09:29:32.746Z,81.12
2022-12-12T09:31:59.504Z,80.78
2022-12-12T09:34:26.168Z,81.02
2022-12-12T09:36:52.797Z,81.20
2022-12-12T09:39:19.742Z,80.31
2022-12-12T09:41:46.382Z,80.78
2022-12-12T09:44:19.607Z,81.05
2022-12-12T09:46:47.961Z,80.96
2022-12-12T09:49:43.024Z,81.11
2022-12-12T09:52:17.769Z,81.33
2022-12-12T09:54:45.284Z,81.36
2022-12-12T09:57:11.864Z,81.10
2022-12-12T09:59:42.287Z,81.04
2022-12-12T10:02:24.135Z,80.64
2022-12-12T10:05:19.668Z,80.58
2022-12-12T10:08:12.284Z,80.74
2022-12-12T10:10:45.074Z,81.24
2022-12-12T10:13:17.974Z,80.68
2022-12-12T10:15:51.339Z,80.57
2022-12-12T10:18:31.638Z,80.73
2022-12-12T10:21:04.735Z,80.73
2022-12-12T10:23:51.002Z,80.67
2022-12-12T10:26:22.247Z,80.73
2022-12-12T10:28:53.318Z,81.00
2022-12-12T10:31:34.915Z,80.81
2022-12-12T10:34:18.007Z,80.65
2022-12-12T10:37:21.774Z,80.87
2022-12-12T10:40:00.462Z,80.90
2022-12-12T10:42:30.096Z,80.24
2022-12-12T10:45:02.545Z,80.58
2022-12-12T10:47:29.206Z,80.50
2022-12-12T10:50:23.190Z,80.58
2022-12-12T10:52:50.106Z,80.65
2022-12-12T10:55:23.902Z,80.34
2022-12-12T10:58:04.331Z,80.83
2022-12-12T11:00:39.529Z,80.76
2022-12-12T11:03:29.790Z,80.16
2022-12-12T11:05:57.205Z,80.76
2022-12-12T11:08:34.370Z,79.96
2022-12-12T11:11:27.116Z,80.13
2022-12-12T11:13:53.706Z,80.25
2022-12-12T11:16:25.146Z,80.53
2022-12-12T11:19:00.770Z,80.69
2022-12-12T11:21:28.759Z,81.06
2022-12-12T11:23:58.027Z,80.66
2022-12-12T11:26:28.552Z,80.38
2022-12-12T11:29:02.106Z,80.43
2022-12-12T11:31:35.272Z,80.33
2022-12-12T11:34:06.386Z,80.13
2022-12-12T11:36:37.681Z,80.65
2022-12-12T11:39:40.781Z,80.54
2022-12-12T11:42:13.555Z,80.76
2022-12-12T11:44:41.682Z,80.31
2022-12-12T11:47:26.857Z,80.61
2022-12-12T11:50:03.747Z,80.55
2022-12-12T11:52:33.858Z,80.10
2022-12-12T11:55:00.969Z,79.94
2022-12-12T11:57:33.453Z,80.06
2022-12-12T12:00:11.530Z,80.29
2022-12-12T12:03:06.042Z,80.92
2022-12-12T12:06:00.187Z,80.32
2022-12-12T12:08:32.900Z,80.49
2022-12-12T12:11:16.230Z,80.27
2022-12-12T12:14:01.461Z,80.58
2022-12-12T12:16:40.582Z,80.18
2022-12-12T12:19:19.266Z,80.57
2022-12-12T12:22:23.343Z,79.67
2022-12-12T12:25:04.742Z,80.40
2022-12-12T12:28:02.034Z,79.63
2022-12-12T12:30:39.560Z,80.00
2022-12-12T12:33:37.047Z,80.63
2022-12-12T12:36:20.867Z,80.14
2022-12-12T12:39:17.870Z,79.72
2022-12-12T12:42:01.077Z,80.19
2022-12-12T12:44:42.991Z,80.46
2022-12-12T12:47:29.738Z,80.06
2022-12-12T12:50:14.602Z,80.16
2022-12-12T12:53:06.268Z,80.28
2022-12-12T12:55:40.004Z,80.65
2022-12-12T12:58:15.224Z,80.33
2022-12-12T13:00:42.337Z,80.13
2022-12-12T13:03:23.257Z,80.17
2022-12-12T13:05:59.843Z,79.77
2022-12-12T13:08:40.027Z,79.79
2022-12-12T13:11:23.361Z,80.14
2022-12-12T13:13:52.082Z,79.77
2022-12-12T13:16:22.917Z,79.87
2022-12-12T13:19:01.706Z,80.18
2022-12-12T13:21:54.731Z,80.15
2022-12-12T13:25:06.151Z,79.83
2022-12-12T13:27:45.832Z,79.96
2022-12-12T13:30:24.039Z,80.05
2022-12-12T13:32:59.863Z,80.44
2022-12-12T13:35:35.458Z,80.15
2022-12-12T13:38:03.736Z,79.95
2022-12-12T13:40:42.185Z,80.42
2022-12-12T13:43:28.994Z,80.29
2022-12-12T13:45:55.749Z,79.95
2022-12-12T13:48:42.916Z,80.15
2022-12-12T13:51:27.853Z,80.32
2022-12-12T13:54:12.130Z,79.86
2022-12-12T13:56:45.353Z,79.62
2022-12-12T13:59:27.002Z,79.71
2022-12-12T14:02:20.779Z,80.16
2022-12-12T14:05:05.053Z,80.34
2022-12-12T14:07:32.355Z,80.53
2022-12-12T14:10:02.223Z,80.26
2022-12-12T14:12:33.582Z,80.01
2022-12-12T14:15:07.082Z,80.03
2022-12-12T14:17:42.270Z,80.02
2022-12-12T14:20:30.615Z,80.39
2022-12-12T14:23:00.017Z,79.88
2022-12-12T14:25:34.933Z,79.56
2022-12-12T14:28:16.933Z,79.92
2022-12-12T14:30:52.436Z,79.93
2022-12-12T14:33:40.748Z,79.86
2022-12-12T14:36:49.749Z,80.09
2022-12-12T14:39:34.080Z,80.58
2022-12-12T14:42:05.776Z,79.87
2022-12-12T14:44:36.528Z,80.27
2022-12-12T14:47:09.174Z,79.74
2022-12-12T14:49:36.544Z,80.00
2022-12-12T14:52:03.366Z,79.91
2022-12-12T14:54:31.088Z,79.99
2022-12-12T14:57:01.626Z,80.29
2022-12-12T14:59:32.295Z,79.72
2022-12-12T15:02:40.075Z,79.91
2022-12-12T15:05:08.032Z,80.26
2022-12-12T15:07:38.926Z,80.03
2022-12-12T15:10:27.535Z,79.96
2022-12-12T15:12:54.231Z,80.18
2022-12-12T15:15:25.123Z,80.44
2022-12-12T15:17:52.619Z,80.09
2022-12-12T15:20:22.899Z,80.33
2022-12-12T15:22:58.668Z,79.80
2022-12-12T15:25:29.091Z,80.53
2022-12-12T15:27:56.816Z,79.97
2022-12-12T15:30:36.942Z,79.80
2022-12-12T15:33:06.302Z,80.25
2022-12-12T15:35:33.672Z,80.21
2022-12-12T15:38:02.562Z,79.79
2022-12-12T15:40:37.514Z,79.68
2022-12-12T15:43:07.123Z,80.23
2022-12-12T15:45:40.082Z,79.72
2022-12-12T15:48:08.054Z,80.41
2022-12-12T15:50:34.597Z,80.28
2022-12-12T15:53:08.164Z,80.26
2022-12-12T15:55:35.536Z,79.65
2022-12-12T15:58:02.325Z,79.70
2022-12-12T16:00:36.118Z,79.97
2022-12-12T16:03:20.314Z,80.18
2022-12-12T16:05:59.316Z,79.57
2022-12-12T16:08:35.465Z,79.98
2022-12-12T16:11:31.865Z,79.43
2022-12-12T16:13:59.707Z,79.61
2022-12-12T16:16:41.032Z,79.92
2022-12-12T16:19:50.331Z,79.71
2022-12-12T16:22:30.798Z,79.40
2022-12-12T16:25:18.518Z,79.43
2022-12-12T16:27:47.111Z,79.59
2022-12-12T16:30:15.634Z,79.97
2022-12-12T16:32:43.548Z,79.83
2022-12-12T16:35:15.842Z,79.32
2022-12-12T16:37:42.546Z,79.32
2022-12-12T16:40:14.477Z,79.41
2022-12-12T16:42:43.572Z,79.37
2022-12-12T16:45:12.174Z,79.44
2022-12-12T16:47:38.803Z,79.41
2022-12-12T16:50:05.737Z,79.01
2022-12-12T16:52:32.397Z,79.35
2022-12-12T16:54:59.011Z,79.49
2022-12-12T16:57:25.642Z,79.19
2022-12-12T16:59:52.270Z,79.85
2022-12-12T17:02:22.046Z,79.27
2022-12-12T17:04:50.905Z,79.19
2022-12-12T17:07:17.818Z,79.36
2022-12-12T17:09:44.509Z,79.11
2022-12-12T17:12:13.156Z,78.88
2022-12-12T17:14:40.093Z,79.27
2022-12-12T17:17:07.019Z,79.07
2022-12-12T17:19:33.979Z,79.06
2022-12-12T17:22:01.080Z,78.69
2022-12-12T17:24:28.262Z,78.69
2022-12-12T17:26:55.086Z,79.17
2022-12-12T17:29:22.490Z,79.22
2022-12-12T17:31:49.193Z,78.61
2022-12-12T17:34:16.359Z,79.02
2022-12-12T17:36:43.021Z,78.94
2022-12-12T17:39:11.011Z,78.94
2022-12-12T17:41:37.700Z,78.89
2022-12-12T17:44:04.479Z,78.35
2022-12-12T17:46:31.087Z,78.61
2022-12-12T17:48:58.985Z,78.67
2022-12-12T17:51:25.832Z,78.40
2022-12-12T17:53:52.977Z,78.73
2022-12-12T17:56:24.125Z,78.45
2022-12-12T17:58:51.141Z,78.29
2022-12-12T18:01:27.150Z,78.70
2022-12-12T18:03:54.802Z,78.11
2022-12-12T18:06:23.223Z,78.20
2022-12-12T18:08:50.228Z,78.34
2022-12-12T18:11:24.562Z,77.85
2022-12-12T18:13:53.107Z,78.63
2022-12-12T18:16:20.487Z,78.68
2022-12-12T18:18:47.791Z,78.24
2022-12-12T18:21:43.380Z,78.62
2022-12-12T18:24:06.643Z,78.41
2022-12-12T18:26:33.555Z,78.20
2022-12-12T18:29:03.715Z,78.05
2022-12-12T18:31:31.138Z,77.99
2022-12-12T18:33:58.473Z,78.45
2022-12-12T18:36:27.961Z,77.88
2022-12-12T18:38:59.687Z,77.92
2022-12-12T18:41:28.331Z,78.04
2022-12-12T18:43:55.603Z,78.35
2022-12-12T18:46:27.853Z,78.03
2022-12-12T18:48:54.513Z,78.06
2022-12-12T18:51:23.881Z,77.92
2022-12-12T18:53:53.185Z,78.19
2022-12-12T18:56:25.585Z,77.97
2022-12-12T18:58:53.727Z,78.12
2022-12-12T19:01:23.407Z,78.04
2022-12-12T19:03:52.944Z,77.68
2022-12-12T19:06:26.110Z,78.12
2022-12-12T19:08:53.919Z,78.02
2022-12-12T19:11:20.635Z,77.97
2022-12-12T19:13:47.690Z,77.98
2022-12-12T19:16:16.939Z,77.83
2022-12-12T19:18:44.538Z,77.80
2022-12-12T19:21:15.036Z,77.98
2022-12-12T19:23:42.307Z,77.91
2022-12-12T19:26:25.273Z,77.73
2022-12-12T19:28:55.781Z,77.42
2022-12-12T19:31:22.837Z,77.59
2022-12-12T19:33:49.497Z,77.70
2022-12-12T19:36:18.903Z,77.41
2022-12-12T19:38:46.113Z,77.66
2022-12-12T19:41:14.566Z,77.71
2022-12-12T19:43:42.880Z,77.69
2022-12-12T19:46:12.373Z,77.38
2022-12-12T19:48:39.620Z,77.21
2022-12-12T19:51:09.787Z,77.77
2022-12-12T19:53:41.135Z,77.15
2022-12-12T19:56:08.519Z,77.01
2022-12-12T19:58:38.701Z,77.40
2022-12-12T20:01:08.073Z,76.88
2022-12-12T20:03:35.246Z,77.23
2022-12-12T20:06:07.838Z,77.26
2022-12-12T20:08:35.778Z,77.42
2022-12-12T20:11:07.490Z,77.47
2022-12-12T20:13:34.699Z,77.13
2022-12-12T20:16:12.195Z,77.27
2022-12-12T20:18:39.742Z,76.75
2022-12-12T20:21:06.526Z,77.29
2022-12-12T20:23:35.876Z,76.64
2022-12-12T20:26:04.070Z,77.15
2022-12-12T20:28:30.851Z,77.05
2022-12-12T20:31:24.743Z,77.35
2022-12-12T20:33:55.062Z,76.72
2022-12-12T20:36:27.120Z,76.80
2022-12-12T20:38:56.662Z,76.77
2022-12-12T20:41:25.954Z,76.96
2022-12-12T20:43:57.711Z,77.39
2022-12-12T20:46:32.773Z,76.95
2022-12-12T20:49:01.294Z,77.11
2022-12-12T20:51:54.915Z,76.46
2022-12-12T20:54:21.567Z,77.03
2022-12-12T20:56:51.532Z,76.82
2022-12-12T20:59:18.198Z,76.61
2022-12-12T21:01:44.978Z,76.94
2022-12-12T21:04:11.817Z,76.85
2022-12-12T21:06:41.091Z,76.80
2022-12-12T21:09:10.454Z,76.78
2022-12-12T21:11:38.797Z,76.90
2022-12-12T21:14:06.838Z,76.45
2022-12-12T21:16:36.350Z,76.17
2022-12-12T21:19:12.371Z,76.30
2022-12-12T21:21:40.824Z,76.54
2022-12-12T21:24:08.197Z,76.73
2022-12-12T21:26:35.106Z,76.67
2022-12-12T21:29:03.082Z,77.11
2022-12-12T21:31:32.497Z,76.69
2022-12-12T21:34:00.256Z,76.87
2022-12-12T21:36:28.212Z,76.62
2022-12-12T21:38:56.850Z,76.97
2022-12-12T21:41:23.988Z,76.99
2022-12-12T21:43:50.978Z,76.56
2022-12-12T21:46:20.288Z,76.66
2022-12-12T21:48:47.803Z,76.92
2022-12-12T21:51:16.429Z,76.74
2022-12-12T21:53:43.444Z,76.63
2022-12-12T21:56:18.337Z,76.61
2022-12-12T21:58:46.542Z,76.43
2022-12-12T22:01:16.774Z,76.34
2022-12-12T22:03:44.652Z,76.70
2022-12-12T22:06:25.854Z,76.30
2022-12-12T22:08:55.538Z,76.42
2022-12-12T22:11:40.275Z,76.23
2022-12-12T22:14:10.444Z,76.73
2022-12-12T22:16:38.002Z,77.08
2022-12-12T22:19:13.376Z,76.42
2022-12-12T22:21:40.358Z,76.41
2022-12-12T22:24:07.359Z,76.36
2022-12-12T22:26:39.140Z,76.06
2022-12-12T22:29:09.796Z,76.81
2022-12-12T22:31:38.291Z,76.78
2022-12-12T22:34:15.615Z,76.21
2022-12-12T22:36:43.151Z,76.60
2022-12-12T22:39:17.911Z,76.84
2022-12-12T22:41:45.314Z,76.42
2022-12-12T22:44:17.173Z,76.42
2022-12-12T22:46:46.228Z,76.47
2022-12-12T22:49:15.282Z,75.92
2022-12-12T22:51:42.010Z,76.62
2022-12-12T22:54:08.679Z,76.60
2022-12-12T22:56:36.950Z,76.48
2022-12-12T22:59:05.324Z,76.36
2022-12-12T23:01:31.978Z,76.03
2022-12-12T23:03:59.147Z,76.25
2022-12-12T23:06:34.089Z,76.17
2022-12-12T23:09:04.711Z,76.28
2022-12-12T23:11:32.393Z,76.29
2022-12-12T23:14:04.533Z,76.26
2022-12-12T23:16:31.321Z,76.43
2022-12-12T23:18:59.136Z,76.47
2022-12-12T23:21:26.686Z,75.72
2022-12-12T23:23:55.380Z,76.33
2022-12-12T23:26:25.075Z,76.39
2022-12-12T23:28:52.128Z,75.84
2022-12-12T23:31:31.798Z,76.02
2022-12-12T23:34:01.191Z,76.04
2022-12-12T23:36:29.015Z,76.31
2022-12-12T23:38:57.475Z,75.82
2022-12-12T23:41:25.153Z,76.17
2022-12-12T23:43:52.706Z,76.39
2022-12-12T23:46:28.927Z,76.09
2022-12-12T23:49:11.647Z,76.08
2022-12-12T23:51:59.389Z,76.35
2022-12-12T23:54:32.181Z,76.30
2022-12-12T23:56:59.797Z,76.37
2022-12-12T23:59:27.396Z,76.22
